createdAt,value
2018-06-03T00:00:00.952Z,137.30
2018-06-03T00:02:28.456Z,127.03
2018-06-03T00:04:55.936Z,117.87
2018-06-03T00:07:23.388Z,102.27
2018-06-03T00:09:50.945Z,115.43
2018-06-03T00:12:18.437Z,121.83
2018-06-03T00:14:45.901Z,106.70
2018-06-03T00:17:13.387Z,106.20
2018-06-03T00:19:40.839Z,120.20
2018-06-03T00:22:09.736Z,108.77
2018-06-03T00:24:37.188Z,120.93
2018-06-03T00:27:04.677Z,117.90
2018-06-03T00:29:32.278Z,111.83
2018-06-03T00:31:59.756Z,105.50
2018-06-03T00:34:28.065Z,104.63
2018-06-03T00:36:55.549Z,110.67
2018-06-03T00:39:23.007Z,114.10
2018-06-03T00:41:50.493Z,96.17
2018-06-03T00:44:17.951Z,104.70
2018-06-03T00:46:45.444Z,104.43
2018-06-03T00:49:12.928Z,107.63
2018-06-03T00:51:40.421Z,117.07
2018-06-03T00:54:07.908Z,114.90
2018-06-03T00:56:47.123Z,111.70
2018-06-03T00:59:15.371Z,100.50
2018-06-03T01:01:42.855Z,111.00
2018-06-03T01:04:10.331Z,107.10
2018-06-03T01:06:37.796Z,109.20
2018-06-03T01:09:05.292Z,105.87
2018-06-03T01:11:32.779Z,103.93
2018-06-03T01:14:01.088Z,118.17
2018-06-03T01:16:28.556Z,111.93
2018-06-03T01:18:56.040Z,105.83
2018-06-03T01:21:23.528Z,111.00
2018-06-03T01:23:51.775Z,116.60
2018-06-03T01:26:19.236Z,116.30
2018-06-03T01:28:46.729Z,117.90
2018-06-03T01:31:14.972Z,121.73
2018-06-03T01:33:42.460Z,117.57
2018-06-03T01:36:10.704Z,122.67
2018-06-03T01:38:38.192Z,125.63
2018-06-03T01:41:06.451Z,126.60
2018-06-03T01:43:33.940Z,126.60
2018-06-03T01:46:01.409Z,123.83
2018-06-03T01:48:28.892Z,132.33
2018-06-03T01:50:56.348Z,127.77
2018-06-03T01:53:23.840Z,116.77
2018-06-03T01:55:52.081Z,107.60
2018-06-03T01:58:19.556Z,105.53
2018-06-03T02:00:47.040Z,110.90
2018-06-03T02:03:16.453Z,101.77
2018-06-03T02:05:43.936Z,110.30
2018-06-03T02:08:11.590Z,108.40
2018-06-03T02:10:39.076Z,110.43
2018-06-03T02:13:06.548Z,105.80
2018-06-03T02:15:34.041Z,100.70
2018-06-03T02:18:02.319Z,114.17
2018-06-03T02:20:29.829Z,124.33
2018-06-03T02:22:57.279Z,121.90
2018-06-03T02:25:24.739Z,124.00
2018-06-03T02:27:52.215Z,113.47
2018-06-03T02:30:19.707Z,119.83
2018-06-03T02:32:47.184Z,121.07
2018-06-03T02:35:14.662Z,122.77
2018-06-03T02:37:42.136Z,118.27
2018-06-03T02:40:09.589Z,126.07
2018-06-03T02:42:37.068Z,127.57
2018-06-03T02:45:05.291Z,123.23
2018-06-03T02:47:32.785Z,125.20
2018-06-03T02:50:00.240Z,132.63
2018-06-03T02:52:27.729Z,132.67
2018-06-03T02:54:55.972Z,134.80
2018-06-03T02:57:23.444Z,133.47
2018-06-03T02:59:50.908Z,141.20
2018-06-03T03:02:18.679Z,143.33
2018-06-03T03:04:46.905Z,153.93
2018-06-03T03:07:14.385Z,160.73
2018-06-03T03:09:41.856Z,138.83
2018-06-03T03:12:09.338Z,145.40
2018-06-03T03:14:36.828Z,158.67
2018-06-03T03:17:04.297Z,142.40
2018-06-03T03:19:31.780Z,149.90
2018-06-03T03:21:59.336Z,145.57
2018-06-03T03:24:26.809Z,147.87
2018-06-03T03:26:54.316Z,145.20
2018-06-03T03:29:22.596Z,153.17
2018-06-03T03:31:50.089Z,159.47
2018-06-03T03:34:17.541Z,157.10
2018-06-03T03:36:45.028Z,138.87
2018-06-03T03:39:13.256Z,150.43
2018-06-03T03:41:40.713Z,154.87
2018-06-03T03:44:08.202Z,153.73
2018-06-03T03:46:35.665Z,153.33
2018-06-03T03:49:03.930Z,155.17
2018-06-03T03:51:31.405Z,146.10
2018-06-03T03:53:59.702Z,148.67
2018-06-03T03:56:27.924Z,151.67
2018-06-03T03:58:55.397Z,143.33
2018-06-03T04:01:22.905Z,154.53
2018-06-03T04:03:50.364Z,134.83
2018-06-03T04:06:17.842Z,142.07
2018-06-03T04:08:45.333Z,137.33
2018-06-03T04:11:12.802Z,140.67
2018-06-03T04:14:10.152Z,126.97
2018-06-03T04:16:38.436Z,126.37
2018-06-03T04:19:06.795Z,130.03
2018-06-03T04:21:35.117Z,132.03
2018-06-03T04:24:03.465Z,129.50
2018-06-03T04:26:31.810Z,134.13
2018-06-03T04:29:00.165Z,128.63
2018-06-03T04:31:28.491Z,133.77
2018-06-03T04:33:56.811Z,142.53
2018-06-03T04:36:25.096Z,136.37
2018-06-03T04:38:53.432Z,150.80
2018-06-03T04:41:21.827Z,128.87
2018-06-03T04:43:50.092Z,127.60
2018-06-03T04:46:18.433Z,136.37
2018-06-03T04:48:46.834Z,124.13
2018-06-03T04:51:15.110Z,121.60
2018-06-03T04:53:43.498Z,124.27
2018-06-03T04:56:11.794Z,129.67
2018-06-03T04:58:41.081Z,111.73
2018-06-03T05:01:09.601Z,106.97
2018-06-03T05:03:37.926Z,101.87
2018-06-03T05:06:06.589Z,107.57
2018-06-03T05:08:34.900Z,104.13
2018-06-03T05:11:03.222Z,100.77
2018-06-03T05:13:31.635Z,87.17
2018-06-03T05:15:59.999Z,98.03
2018-06-03T05:18:28.360Z,89.27
2018-06-03T05:20:56.714Z,85.97
2018-06-03T05:23:25.091Z,84.80
2018-06-03T05:25:53.438Z,85.57
2018-06-03T05:28:21.733Z,93.90
2018-06-03T05:30:56.393Z,91.77
2018-06-03T05:33:24.737Z,94.17
2018-06-03T05:35:53.052Z,85.57
2018-06-03T05:38:21.392Z,77.90
2018-06-03T05:40:49.705Z,81.00
2018-06-03T05:43:18.036Z,75.93
2018-06-03T05:45:46.375Z,70.20
2018-06-03T05:48:14.660Z,82.00
2018-06-03T05:50:43.020Z,83.70
2018-06-03T05:53:11.371Z,77.40
2018-06-03T05:55:39.649Z,70.53
2018-06-03T05:58:08.073Z,76.73
2018-06-03T06:00:36.156Z,79.83
2018-06-03T06:03:04.445Z,71.57
2018-06-03T06:05:32.759Z,62.77
2018-06-03T06:08:01.109Z,62.80
2018-06-03T06:10:29.500Z,67.83
2018-06-03T06:12:57.865Z,63.33
2018-06-03T06:15:26.206Z,63.70
2018-06-03T06:17:54.569Z,63.23
2018-06-03T06:20:22.908Z,64.73
2018-06-03T06:22:51.248Z,63.70
2018-06-03T06:25:19.540Z,58.27
2018-06-03T06:27:47.879Z,58.17
2018-06-03T06:30:16.204Z,60.17
2018-06-03T06:32:44.527Z,52.90
2018-06-03T06:35:12.873Z,52.20
2018-06-03T06:37:41.189Z,55.47
2018-06-03T06:40:09.526Z,58.37
2018-06-03T06:42:37.905Z,54.53
2018-06-03T06:45:06.240Z,58.23
2018-06-03T06:47:34.540Z,55.77
2018-06-03T06:50:02.995Z,57.00
2018-06-03T06:52:31.264Z,50.87
2018-06-03T06:54:59.673Z,55.53
2018-06-03T06:57:27.728Z,54.60
2018-06-03T06:59:55.895Z,51.00
2018-06-03T07:02:24.205Z,54.73
2018-06-03T07:04:52.544Z,48.73
2018-06-03T07:07:20.867Z,48.53
2018-06-03T07:09:49.178Z,54.30
2018-06-03T07:12:17.513Z,54.63
2018-06-03T07:14:45.832Z,54.47
2018-06-03T07:17:14.197Z,50.20
2018-06-03T07:19:42.536Z,54.40
2018-06-03T07:22:10.909Z,49.57
2018-06-03T07:24:39.248Z,49.70
2018-06-03T07:27:07.618Z,43.33
2018-06-03T07:29:35.980Z,40.30
2018-06-03T07:32:04.366Z,39.57
2018-06-03T07:34:32.741Z,39.87
2018-06-03T07:37:01.088Z,39.77
2018-06-03T07:39:29.649Z,37.00
2018-06-03T07:41:58.738Z,38.47
2018-06-03T07:44:27.051Z,36.03
2018-06-03T07:46:55.376Z,42.27
2018-06-03T07:49:23.748Z,40.17
2018-06-03T07:51:52.085Z,36.27
2018-06-03T07:54:20.437Z,43.43
2018-06-03T07:56:48.733Z,43.63
2018-06-03T07:59:17.064Z,41.73
2018-06-03T08:01:45.464Z,38.67
2018-06-03T08:04:13.858Z,40.83
2018-06-03T08:06:41.899Z,38.60
2018-06-03T08:09:10.256Z,42.97
2018-06-03T08:11:38.580Z,37.23
2018-06-03T08:14:06.873Z,32.93
2018-06-03T08:16:35.228Z,35.63
2018-06-03T08:19:03.556Z,41.83
2018-06-03T08:21:31.853Z,36.90
2018-06-03T08:24:00.416Z,39.83
2018-06-03T08:26:29.791Z,43.77
2018-06-03T08:28:58.096Z,42.60
2018-06-03T08:31:26.525Z,37.70
2018-06-03T08:33:54.850Z,44.67
2018-06-03T08:36:23.232Z,38.03
2018-06-03T08:38:51.556Z,45.57
2018-06-03T08:43:54.613Z,34.80
2018-06-03T08:46:22.988Z,36.20
2018-06-03T08:48:51.297Z,34.43
2018-06-03T08:51:19.666Z,33.57
2018-06-03T08:53:48.093Z,35.67
2018-06-03T08:56:16.530Z,37.73
2018-06-03T08:58:44.875Z,36.60
2018-06-03T09:01:13.236Z,36.37
2018-06-03T09:03:41.740Z,37.17
2018-06-03T09:06:10.299Z,37.97
2018-06-03T09:08:38.604Z,37.90
2018-06-03T09:11:06.933Z,37.23
2018-06-03T09:13:34.982Z,35.93
2018-06-03T09:16:03.303Z,34.70
2018-06-03T09:18:31.652Z,33.97
2018-06-03T09:20:59.991Z,32.37
2018-06-03T09:23:28.322Z,31.53
2018-06-03T09:25:56.659Z,28.90
2018-06-03T09:28:25.041Z,30.90
2018-06-03T09:30:58.780Z,26.80
2018-06-03T09:33:27.157Z,25.17
2018-06-03T09:35:56.796Z,25.10
2018-06-03T09:38:25.323Z,27.70
2018-06-03T09:40:53.757Z,27.67
2018-06-03T09:43:22.104Z,30.30
2018-06-03T09:45:50.501Z,25.33
2018-06-03T09:48:18.898Z,27.47
2018-06-03T09:50:47.255Z,28.40
2018-06-03T09:53:15.602Z,23.90
2018-06-03T09:55:43.902Z,26.37
2018-06-03T09:58:11.960Z,22.33
2018-06-03T10:00:39.976Z,24.07
2018-06-03T10:03:08.309Z,25.10
2018-06-03T10:05:37.044Z,25.47
2018-06-03T10:08:05.438Z,25.47
2018-06-03T10:10:33.756Z,22.40
2018-06-03T10:13:02.262Z,21.73
2018-06-03T10:15:30.584Z,21.93
2018-06-03T10:17:58.958Z,18.07
2018-06-03T10:20:27.330Z,16.53
2018-06-03T10:22:55.657Z,17.13
2018-06-03T10:25:23.985Z,16.37
2018-06-03T10:27:52.276Z,13.67
2018-06-03T10:30:20.578Z,16.13
2018-06-03T10:32:48.949Z,15.30
2018-06-03T10:35:17.333Z,16.37
2018-06-03T10:37:45.684Z,17.03
2018-06-03T10:40:13.859Z,14.97
2018-06-03T10:42:42.261Z,13.80
2018-06-03T10:45:10.635Z,15.87
2018-06-03T10:47:38.960Z,16.03
2018-06-03T10:50:07.309Z,13.63
2018-06-03T10:52:35.716Z,16.87
2018-06-03T10:55:04.077Z,14.93
2018-06-03T10:57:32.388Z,15.07
2018-06-03T11:00:00.768Z,17.90
2018-06-03T11:02:29.068Z,18.57
2018-06-03T11:04:57.401Z,17.07
2018-06-03T11:07:25.737Z,14.83
2018-06-03T11:09:54.056Z,15.40
2018-06-03T11:12:22.401Z,11.77
2018-06-03T11:14:50.557Z,14.27
2018-06-03T11:17:18.857Z,15.07
2018-06-03T11:19:47.388Z,12.23
2018-06-03T11:22:15.715Z,12.77
2018-06-03T11:24:44.065Z,13.73
2018-06-03T11:27:12.357Z,14.00
2018-06-03T11:29:40.683Z,15.57
2018-06-03T11:32:08.994Z,17.90
2018-06-03T11:34:37.341Z,23.73
2018-06-03T11:37:05.672Z,23.77
2018-06-03T11:39:34.024Z,24.57
2018-06-03T11:42:02.457Z,26.87
2018-06-03T11:44:30.780Z,25.07
2018-06-03T11:46:59.153Z,31.13
2018-06-03T11:49:27.437Z,28.97
2018-06-03T11:51:55.811Z,46.77
2018-06-03T11:54:24.182Z,25.30
2018-06-03T11:57:01.812Z,27.27
2018-06-03T11:59:45.541Z,27.83
2018-06-03T12:02:15.445Z,22.43
2018-06-03T12:04:43.780Z,25.33
2018-06-03T12:07:12.129Z,25.13
2018-06-03T12:09:40.161Z,24.27
2018-06-03T12:12:08.529Z,24.93
2018-06-03T12:14:36.841Z,27.70
2018-06-03T12:17:05.229Z,24.70
2018-06-03T12:19:33.632Z,24.43
2018-06-03T12:22:01.937Z,26.50
2018-06-03T12:24:30.288Z,23.50
2018-06-03T12:26:58.597Z,22.17
2018-06-03T12:29:26.941Z,24.23
2018-06-03T12:31:55.394Z,22.77
2018-06-03T12:34:23.525Z,20.67
2018-06-03T12:36:51.920Z,23.30
2018-06-03T12:39:20.234Z,25.67
2018-06-03T12:41:48.600Z,20.03
2018-06-03T12:44:16.915Z,21.10
2018-06-03T12:46:45.244Z,20.77
2018-06-03T12:49:13.622Z,20.43
2018-06-03T12:51:41.972Z,20.13
2018-06-03T12:54:10.847Z,23.67
2018-06-03T12:56:39.180Z,22.40
2018-06-03T12:59:07.590Z,19.77
2018-06-03T13:01:35.916Z,20.67
2018-06-03T13:04:04.232Z,21.97
2018-06-03T13:06:32.532Z,15.93
2018-06-03T13:09:00.870Z,14.57
2018-06-03T13:11:29.587Z,20.80
2018-06-03T13:13:58.114Z,42.23
2018-06-03T13:16:26.478Z,20.27
2018-06-03T13:18:54.828Z,18.10
2018-06-03T13:21:23.177Z,18.17
2018-06-03T13:23:51.273Z,17.60
2018-06-03T13:26:19.556Z,17.83
2018-06-03T13:28:47.917Z,16.77
2018-06-03T13:31:16.251Z,18.97
2018-06-03T13:33:44.625Z,24.60
2018-06-03T13:36:12.943Z,20.43
2018-06-03T13:38:41.309Z,18.40
2018-06-03T13:41:09.605Z,16.60
2018-06-03T13:43:37.900Z,17.23
2018-06-03T13:46:06.252Z,19.30
2018-06-03T13:48:34.593Z,18.90
2018-06-03T13:51:03.033Z,18.17
2018-06-03T13:53:31.402Z,17.73
2018-06-03T13:55:59.744Z,15.83
2018-06-03T13:58:29.720Z,18.60
2018-06-03T14:00:58.059Z,14.77
2018-06-03T14:03:27.442Z,15.00
2018-06-03T14:05:55.750Z,13.87
2018-06-03T14:08:24.082Z,16.43
2018-06-03T14:10:52.483Z,15.63
2018-06-03T14:13:20.799Z,12.67
2018-06-03T14:15:49.217Z,12.27
2018-06-03T14:18:17.577Z,13.90
2018-06-03T14:20:45.927Z,14.93
2018-06-03T14:23:14.222Z,14.40
2018-06-03T14:25:42.557Z,13.57
2018-06-03T14:28:10.957Z,15.23
2018-06-03T14:30:39.301Z,14.17
2018-06-03T14:33:07.685Z,16.77
2018-06-03T14:35:36.008Z,13.30
2018-06-03T14:38:04.572Z,15.27
2018-06-03T14:40:32.948Z,15.30
2018-06-03T14:43:01.305Z,13.10
2018-06-03T14:45:29.684Z,17.13
2018-06-03T14:47:58.044Z,15.07
2018-06-03T14:50:26.404Z,16.27
2018-06-03T14:52:54.745Z,14.60
2018-06-03T14:55:23.101Z,14.83
2018-06-03T14:57:51.507Z,16.30
2018-06-03T15:00:19.755Z,15.47
2018-06-03T15:02:48.134Z,15.60
2018-06-03T15:05:16.456Z,16.37
2018-06-03T15:07:44.845Z,16.77
2018-06-03T15:10:13.209Z,18.93
2018-06-03T15:12:41.537Z,16.17
2018-06-03T15:15:09.876Z,18.13
2018-06-03T15:17:38.246Z,14.40
2018-06-03T15:20:06.368Z,20.27
2018-06-03T15:22:34.761Z,18.73
2018-06-03T15:25:03.219Z,18.87
2018-06-03T15:27:31.325Z,19.20
2018-06-03T15:29:59.686Z,23.10
2018-06-03T15:32:28.674Z,20.97
2018-06-03T15:34:56.790Z,21.27
2018-06-03T15:37:25.158Z,24.23
2018-06-03T15:39:53.452Z,19.37
2018-06-03T15:42:21.981Z,18.60
2018-06-03T15:44:50.330Z,17.83
2018-06-03T15:47:18.688Z,21.50
2018-06-03T15:49:47.061Z,18.13
2018-06-03T15:52:15.409Z,20.53
2018-06-03T15:54:43.807Z,20.03
2018-06-03T15:57:12.158Z,26.43
2018-06-03T15:59:40.568Z,16.73
2018-06-03T16:02:08.884Z,19.93
2018-06-03T16:04:37.257Z,18.23
2018-06-03T16:07:05.652Z,20.80
2018-06-03T16:09:34.049Z,18.50
2018-06-03T16:12:02.386Z,19.30
2018-06-03T16:14:30.769Z,21.70
2018-06-03T16:16:59.238Z,21.40
2018-06-03T16:19:27.583Z,20.97
2018-06-03T16:21:55.984Z,18.60
2018-06-03T16:24:24.422Z,21.87
2018-06-03T16:26:53.125Z,22.47
2018-06-03T16:29:21.412Z,22.63
2018-06-03T16:31:49.744Z,21.67
2018-06-03T16:34:18.045Z,20.93
2018-06-03T16:36:46.580Z,18.47
2018-06-03T16:39:14.897Z,21.33
2018-06-03T16:41:43.244Z,23.77
2018-06-03T16:44:11.532Z,21.53
2018-06-03T16:46:40.468Z,20.17
2018-06-03T16:49:08.930Z,24.03
2018-06-03T16:51:37.357Z,22.57
2018-06-03T16:54:05.797Z,18.40
2018-06-03T16:56:34.217Z,19.00
2018-06-03T16:59:02.669Z,18.57
2018-06-03T17:01:31.074Z,20.63
2018-06-03T17:03:59.404Z,21.40
2018-06-03T17:06:27.736Z,20.00
2018-06-03T17:08:56.096Z,18.87
2018-06-03T17:11:24.461Z,18.93
2018-06-03T17:13:53.143Z,19.23
2018-06-03T17:16:21.549Z,17.67
2018-06-03T17:18:49.935Z,17.00
2018-06-03T17:21:18.296Z,12.73
2018-06-03T17:23:46.687Z,14.53
2018-06-03T17:26:15.046Z,16.60
2018-06-03T17:28:43.396Z,11.27
2018-06-03T17:31:11.728Z,14.60
2018-06-03T17:33:40.077Z,11.20
2018-06-03T17:36:08.400Z,14.00
2018-06-03T17:38:36.805Z,10.30
2018-06-03T17:41:05.237Z,10.93
2018-06-03T17:43:33.583Z,10.47
2018-06-03T17:46:01.948Z,12.23
2018-06-03T17:48:30.325Z,10.17
2018-06-03T17:50:58.672Z,9.60
2018-06-03T17:53:26.977Z,8.87
2018-06-03T17:55:55.302Z,8.60
2018-06-03T17:58:23.660Z,11.33
2018-06-03T18:00:52.044Z,9.63
2018-06-03T18:03:20.349Z,9.80
2018-06-03T18:05:48.799Z,7.87
2018-06-03T18:08:17.096Z,10.10
2018-06-03T18:10:45.488Z,9.50
2018-06-03T18:13:13.855Z,9.57
2018-06-03T18:15:42.384Z,7.70
2018-06-03T18:18:10.736Z,9.57
2018-06-03T18:20:39.072Z,12.00
2018-06-03T18:23:07.421Z,7.40
2018-06-03T18:25:35.836Z,8.13
2018-06-03T18:28:04.189Z,8.37
2018-06-03T18:30:32.558Z,9.30
2018-06-03T18:33:00.898Z,7.17
2018-06-03T18:35:29.253Z,7.97
2018-06-03T18:37:57.637Z,8.27
2018-06-03T18:40:25.936Z,9.23
2018-06-03T18:42:54.307Z,7.27
2018-06-03T18:45:22.664Z,7.70
2018-06-03T18:47:51.067Z,6.30
2018-06-03T18:50:19.431Z,7.77
2018-06-03T18:52:47.803Z,7.70
2018-06-03T18:55:16.125Z,8.97
2018-06-03T18:57:44.446Z,7.40
2018-06-03T19:00:12.747Z,7.27
2018-06-03T19:02:41.076Z,7.50
2018-06-03T19:05:09.521Z,8.20
2018-06-03T19:07:37.889Z,9.30
2018-06-03T19:10:06.230Z,7.97
2018-06-03T19:12:34.572Z,8.70
2018-06-03T19:15:03.186Z,8.93
2018-06-03T19:17:31.517Z,8.40
2018-06-03T19:19:59.856Z,9.13
2018-06-03T19:22:28.200Z,8.23
2018-06-03T19:24:56.548Z,7.97
2018-06-03T19:27:24.890Z,10.57
2018-06-03T19:29:53.267Z,8.43
2018-06-03T19:32:21.560Z,9.00
2018-06-03T19:34:49.940Z,8.60
2018-06-03T19:37:18.326Z,8.20
2018-06-03T19:39:46.688Z,11.47
2018-06-03T19:42:15.250Z,8.20
2018-06-03T19:44:43.289Z,8.10
2018-06-03T19:47:11.613Z,8.60
2018-06-03T19:49:39.900Z,9.33
2018-06-03T19:52:08.286Z,10.80
2018-06-03T19:54:36.754Z,8.50
2018-06-03T19:57:05.411Z,7.80
2018-06-03T19:59:33.720Z,9.97
2018-06-03T20:02:02.104Z,8.97
2018-06-03T20:04:30.451Z,10.20
2018-06-03T20:06:58.480Z,10.30
2018-06-03T20:09:26.943Z,11.73
2018-06-03T20:11:55.314Z,8.77
2018-06-03T20:14:23.682Z,10.50
2018-06-03T20:16:51.999Z,10.73
2018-06-03T20:19:20.321Z,8.43
2018-06-03T20:21:48.705Z,10.13
2018-06-03T20:24:16.944Z,9.70
2018-06-03T20:26:46.491Z,9.20
2018-06-03T20:29:14.896Z,8.80
2018-06-03T20:31:43.222Z,10.00
2018-06-03T20:34:11.578Z,10.03
2018-06-03T20:36:39.913Z,10.03
2018-06-03T20:39:08.589Z,10.13
2018-06-03T20:41:36.892Z,10.07
2018-06-03T20:44:05.236Z,10.50
2018-06-03T20:46:33.654Z,10.03
2018-06-03T20:49:02.061Z,9.97
2018-06-03T20:51:30.369Z,10.47
2018-06-03T20:53:58.797Z,11.03
2018-06-03T20:56:27.268Z,11.80
2018-06-03T20:58:55.564Z,12.30
2018-06-03T21:01:24.026Z,10.83
2018-06-03T21:03:52.400Z,12.60
2018-06-03T21:06:20.761Z,12.47
2018-06-03T21:08:49.115Z,11.43
2018-06-03T21:11:17.242Z,12.03
2018-06-03T21:13:45.587Z,13.17
2018-06-03T21:16:14.125Z,12.40
2018-06-03T21:18:43.413Z,12.50
2018-06-03T21:21:11.753Z,13.17
2018-06-03T21:23:40.108Z,13.20
2018-06-03T21:26:08.453Z,13.60
2018-06-03T21:28:36.883Z,13.17
2018-06-03T21:31:05.184Z,12.67
2018-06-03T21:33:33.516Z,11.70
2018-06-03T21:36:01.533Z,14.13
2018-06-03T21:38:29.872Z,13.20
2018-06-03T21:40:58.184Z,12.53
2018-06-03T21:43:26.548Z,12.47
2018-06-03T21:45:54.860Z,12.47
2018-06-03T21:48:23.222Z,14.73
2018-06-03T21:50:51.586Z,12.57
2018-06-03T21:53:19.888Z,14.37
2018-06-03T21:55:48.294Z,12.50
2018-06-03T21:58:16.608Z,12.87
2018-06-03T22:00:44.940Z,14.30
2018-06-03T22:03:13.310Z,14.43
2018-06-03T22:05:41.370Z,13.33
2018-06-03T22:08:09.750Z,13.77
2018-06-03T22:10:38.088Z,14.70
2018-06-03T22:13:06.488Z,15.67
2018-06-03T22:15:34.807Z,17.13
2018-06-03T22:18:03.155Z,15.97
2018-06-03T22:20:31.460Z,17.50
2018-06-03T22:22:59.761Z,17.20
2018-06-03T22:25:28.113Z,20.50
2018-06-03T22:27:56.445Z,18.87
2018-06-03T22:30:24.752Z,20.47
2018-06-03T22:32:53.115Z,21.40
2018-06-03T22:35:21.640Z,22.50
2018-06-03T22:37:49.683Z,21.33
2018-06-03T22:40:18.039Z,23.50
2018-06-03T22:42:46.364Z,23.63
2018-06-03T22:45:14.717Z,23.73
2018-06-03T22:47:43.025Z,22.90
2018-06-03T22:50:11.383Z,22.90
2018-06-03T22:52:39.675Z,21.90
2018-06-03T22:55:08.004Z,26.17
2018-06-03T22:57:45.913Z,23.30
2018-06-03T23:00:22.246Z,24.43
2018-06-03T23:02:56.106Z,27.27
2018-06-03T23:05:24.531Z,24.93
2018-06-03T23:07:53.145Z,28.97
2018-06-03T23:10:21.760Z,28.00
2018-06-03T23:12:50.140Z,28.33
2018-06-03T23:15:18.455Z,28.27
2018-06-03T23:17:46.811Z,25.70
2018-06-03T23:20:15.147Z,29.03
2018-06-03T23:22:43.486Z,31.67
2018-06-03T23:25:11.813Z,32.47
2018-06-03T23:27:40.120Z,28.20
2018-06-03T23:30:08.461Z,32.77
2018-06-03T23:32:36.835Z,34.60
2018-06-03T23:35:05.212Z,34.40
2018-06-03T23:37:33.504Z,32.47
2018-06-03T23:40:01.820Z,33.83
2018-06-03T23:42:30.152Z,30.13
2018-06-03T23:44:58.460Z,30.83
2018-06-03T23:47:26.530Z,31.10
2018-06-03T23:49:54.824Z,28.33
2018-06-03T23:52:23.172Z,33.33
2018-06-03T23:54:51.534Z,31.27
2018-06-03T23:57:19.845Z,34.77
2018-06-03T23:59:48.200Z,28.37
